首页
METAR-TAF:

METAR-TAF

机场 :

塔什干国际机场

塔什干, 乌兹别克斯坦

纬度: 41-16N, 经度: 069-16E, 海拔: 489米

当前天气观测

该预报发布于25分钟前的17:30 UTC
风速8节,风向
温度 30°C
湿度 27%
气压 1003 hPa
能见度10公里或以上
散云层高于6600英尺, 积雨云.

METAR: UTTT 231730Z 18008KT 9999 SCT066CB 30/09 Q1003 R26R/CLRD70 NOSIG

时间: 22:55 (17:55 UTC)

预报

该预报发布于55分钟前的17:00 UTC
预报有效从23日的 18点(UTC)到 24日的 18点(UTC)
风速10节,风向西南
能见度10公里或以上
少量云层高于6000英尺, 积雨云.
散云层高于10000英尺
短暂存在
从 23日的 18点(UTC)到 23日的 24点(UTC)
风速22节,风向多变,有时为32节阵风
能見度: 3000
散云层高于5000英尺, 积雨云.
雷暴, 小雨
短暂存在
从 24日的 00点(UTC)到 24日的 08点(UTC)
风速15节,风向多变,有时为25节阵风
能見度: 4000
散云层高于4000英尺, 积雨云.
多云层高于10000英尺
雷暴, 小雨, 霾

TAF: UTTT 231700Z 2318/2418 23010KT 9999 FEW060CB SCT100 TEMPO 2318/2324 VRB22G32KT 3000 -TSRA -DS SCT050CB TEMPO 2400/2408 VRB15G25KT 4000 -TSRA HZ SCT040CB BKN100

超过4000个机场的气象观测和天气预报(METAR&TAF报告)。

可查询的气象台以黄色和红色小点在地图上表示。

将鼠标移到小点上方,可查看气象台名称。

然后点击查看天气观测和预报。

如需切换地图:点击带黑十字的绿色按钮放大地图;点击带横线的绿色按钮缩小地图;或者点击绿色箭头查看邻近地区的地图。


METAR-TAF: